This is the latest recevied weather packets stored in our database for station/object K1BES. If no packets are shown the sender has not sent any weather packets the latest 10 day(s).
| Time | Temp. | Humidity | Pressure | Rain* | Wind** | Luminosity | Snow |
|---|---|---|---|---|---|---|---|
| 1787672982 | 34.44° C | 60% | 1020.9 hPa | 0 mm | - | 876 W/m² | - |
| 1787672677 | 34.44° C | 62% | 1021 hPa | 0 mm | - | 854 W/m² | - |
| 1787672377 | 33.89° C | 62% | 1020.9 hPa | 0 mm | - | 844 W/m² | - |
| 1787672077 | 33.89° C | 62% | 1021.2 hPa | 0 mm | - | 832 W/m² | - |
| 1787671776 | 33.33° C | 62% | 1021.1 hPa | 0 mm | - | 819 W/m² | - |
| 1787671471 | 33.33° C | 62% | 1020.7 hPa | 0 mm | - | 794 W/m² | - |
| 1787671167 | 32.22° C | 66% | 1020.8 hPa | 0 mm | - | 792 W/m² | - |
| 1787670863 | 31.11° C | 69% | 1020.9 hPa | 0 mm | - | 802 W/m² | - |
| 1787670558 | 31.11° C | 70% | 1020.8 hPa | 0 mm | - | 820 W/m² | - |
| 1787670258 | 31.67° C | 70% | 1020.7 hPa | 0 mm | - | 126 W/m² | - |
| 1787669957 | 31.11° C | 71% | 1020.6 hPa | 0 mm | - | 269 W/m² | - |
| 1787669652 | 31.11° C | 69% | 1020.4 hPa | 0 mm | - | 170 W/m² | - |
| 1787669347 | 31.11° C | 70% | 1020.6 hPa | 0 mm | - | 148 W/m² | - |
| 1787669043 | 31.67° C | 69% | 1020.7 hPa | 0 mm | - | 129 W/m² | - |
| 1787668739 | 32.22° C | 65% | 1020.8 hPa | 0 mm | - | 131 W/m² | - |
| 1787668436 | 33.33° C | 62% | 1020.5 hPa | 0 mm | - | 145 W/m² | - |
| 1787668135 | 34.44° C | 60% | 1020.5 hPa | 0 mm | - | 104 W/m² | - |
| 1787667831 | 33.89° C | 63% | 1020.7 hPa | 0 mm | - | 605 W/m² | - |
| 1787667527 | 33.33° C | 64% | 1020.7 hPa | 0 mm | - | 597 W/m² | - |
| 1787667223 | 33.33° C | 63% | 1020.5 hPa | 0 mm | - | 559 W/m² | - |
| 1787666922 | 33.33° C | 65% | 1020.4 hPa | 0 mm | - | 533 W/m² | - |
| 1787666618 | 32.78° C | 66% | 1020.7 hPa | 0 mm | - | 506 W/m² | - |
| 1787666317 | 32.78° C | 65% | 1020.5 hPa | 0 mm | - | 487 W/m² | - |
| 1787666014 | 32.78° C | 67% | 1020.4 hPa | 0 mm | - | 466 W/m² | - |
| 1787665714 | 32.78° C | 68% | 1020.5 hPa | 0 mm | - | 447 W/m² | - |
* Rain latest hour (hover to see other rain measurements)
** Current wind speed in m/s (hover to see current wind gust speed)